Flight Track Log - Related Links

Times and Time Zones

All times are in EDT time to prevent confusion due to time zone crossing. See the XOJ552 flight status page for this flight to view local times or setup timezone preferences in your user account.

Time Position Orientation Groundspeed Altitude Reporting Facility
EDT Latitude Longitude Course Direction KTS MPH feet Rate Location/Type
Sat 09:50:34 AM 41.7281 -86.3881 45° Northeast 195 224 3,200  Level Cleveland Center
Sat 09:51:36 AM 41.7678 -86.3342 45° Northeast 246 283 5,800 3,073 Climbing Chicago Center
Sat 09:52:37 AM 41.7756 -86.2439 83° East 246 283 9,500 3,561 Climbing Chicago Center
Sat 09:53:39 AM 41.7875 -86.1267 82° East 317 365 13,100 3,484 Climbing Chicago Center
Sat 09:54:41 AM 41.8033 -85.9872 81° East 370 426 16,700 3,512 Climbing Chicago Center
Sat 09:55:42 AM 41.8194 -85.8361 82° East 402 463 20,300 3,463 Climbing Chicago Center
Sat 09:56:44 AM 41.8356 -85.6764 82° East 423 487 23,800 2,976 Climbing Chicago Center
Sat 09:57:45 AM 41.9108 -85.5328 55° Northeast 465 535 26,400 2,293 Climbing Chicago Center
Sat 09:58:47 AM 41.9922 -85.3792 54° Northeast 492 566 28,500 2,032 Climbing Chicago Center
Sat 09:59:49 AM 42.0775 -85.2097 56° Northeast 530 610 30,600 2,226 Climbing Chicago Center
Sat 10:00:51 AM 42.1103 -84.9778 79° East 535 616 33,100 2,049 Climbing Chicago Center
Sat 10:01:52 AM 42.1144 -84.7836 88° East 527 606 34,800 1,805 Climbing Chicago Center
Sat 10:02:54 AM 42.1133 -84.5864 90° East 529 609 36,800 1,707 Climbing Chicago Center
Sat 10:03:55 AM 42.1125 -84.3922 90° East 524 603 38,300 1,289 Climbing Chicago Center
Sat 10:04:55 AM 42.1092 -84.2106 91° East 524 603 39,400 1,091 Climbing Cleveland Center
Sat 10:05:56 AM 42.1069 -84.0131 91° East 530 610 40,500 1,220 Climbing Cleveland Center
Sat 10:06:58 AM 42.1031 -83.7758 91° East 534 615 41,900 1,171 Climbing Cleveland Center
Sat 10:07:59 AM 42.0997 -83.5839 91° East 526 605 42,900 1,073 Climbing Cleveland Center
Sat 10:09:01 AM 42.0953 -83.3761 92° East 521 600 44,100 1,024 Climbing Cleveland Center
Sat 10:10:02 AM 42.0931 -83.1833 91° East 510 587 45,000 439 Climbing Cleveland Center
Sat 10:11:04 AM 42.0894 -83.0189 92° East 510 587 45,000  Level Cleveland Center
Sat 10:12:05 AM 42.0844 -82.7850 92° East 522 601 45,000  Level Cleveland Center
Sat 10:13:07 AM 42.0803 -82.5900 92° East 524 603 45,000  Level Cleveland Center
Sat 10:14:09 AM 42.0742 -82.3983 92° East 518 596 45,000  Level Cleveland Center
Sat 10:15:10 AM 42.0700 -82.2053 92° East 518 596 45,000  Level Cleveland Center
Sat 10:16:12 AM 42.0633 -82.0094 93° East 514 592 45,000  Level Cleveland Center
Sat 10:17:13 AM 42.0575 -81.8142 92° East 515 593 45,000  Level Cleveland Center
Sat 10:18:15 AM 42.0525 -81.6214 92° East 511 588 45,000  Level Cleveland Center
Sat 10:19:16 AM 42.0444 -81.4286 93° East 510 587 45,000  Level Cleveland Center
Sat 10:20:18 AM 42.0381 -81.2350 92° East 510 587 45,000  Level Cleveland Center
Sat 10:21:19 AM 42.0303 -81.0433 93° East 509 586 45,000  Level Cleveland Center
Sat 10:22:21 AM 42.0233 -80.8506 93° East 510 587 45,000  Level Cleveland Center
Sat 10:23:23 AM 42.0150 -80.6264 93° East 509 586 45,000  Level Cleveland Center
Sat 10:24:24 AM 42.0061 -80.4333 93° East 511 588 45,000  Level Cleveland Center
Sat 10:25:26 AM 41.9994 -80.2422 93° East 506 582 45,000  Level Cleveland Center
Sat 10:26:28 AM 41.9892 -80.0481 94° East 513 590 45,000  Level Cleveland Center
Sat 10:27:29 AM 41.9806 -79.8764 94° East 510 587 45,000  Level Cleveland Center
Sat 10:28:31 AM 41.9694 -79.6483 94° East 512 589 45,000  Level Cleveland Center
Sat 10:29:33 AM 41.9603 -79.4581 94° East 512 589 45,000  Level Cleveland Center
Sat 10:30:34 AM 41.9492 -79.2686 94° East 511 588 45,000  Level Cleveland Center
Sat 10:31:36 AM 41.9397 -79.0775 94° East 513 590 45,000 -145 Level Cleveland Center
Sat 10:32:38 AM 41.9286 -78.8883 94° East 510 587 44,700  Descending Cleveland Center
Sat 10:33:40 AM 41.9186 -78.7019 94° East 504 580 45,000 145 Climbing Cleveland Center
Sat 10:34:42 AM 41.9072 -78.5144 95° East 504 580 45,000 -48 Level Cleveland Center
Sat 10:35:44 AM 41.8925 -78.2850 95° East 512 589 44,900 -1,113 Descending Cleveland Center
Sat 10:36:46 AM 41.8811 -78.0928 94° East 516 594 42,700 -2,274 Descending Cleveland Center
Sat 10:37:48 AM 41.8678 -77.8975 95° East 524 603 40,200 -2,565 Descending Cleveland Center
Sat 10:38:50 AM 41.8272 -77.7094 106° East 524 603 37,400 -2,708 Descending Cleveland Center
Sat 10:39:41 AM 41.7844 -77.5417 109° East 536 617 35,100 -1,297 Descending New York Center
Sat 10:40:41 AM 41.7328 -77.3503 110° East 541 623 35,000 -50 Descending New York Center
Sat 10:41:41 AM 41.6808 -77.1589 110° East 550 633 35,000 -700 Level New York Center
Sat 10:42:41 AM 41.6233 -76.9453 110° East 550 633 33,600 -1,950 Descending New York Center
Sat 10:43:41 AM 41.5706 -76.7547 110° East 545 627 31,100 -2,300 Descending New York Center
Sat 10:44:41 AM 41.5228 -76.5842 110° East 545 627 29,000 -2,200 Descending New York Center
Sat 10:45:41 AM 41.4733 -76.4000 110° East 539 620 26,700 -2,300 Descending New York Center
Sat 10:46:41 AM 41.4200 -76.2017 110° East 534 615 24,400 -2,200 Descending New York Center
Sat 10:47:41 AM 41.3694 -76.0344 112° Southeast 508 585 22,300 -2,050 Descending New York Center
Sat 10:48:41 AM 41.3264 -75.8764 110° East 478 550 20,300 -2,000 Descending New York Center
Sat 10:49:41 AM 41.2806 -75.7239 112° Southeast 451 519 18,300 -1,650 Descending New York Center
Sat 10:50:41 AM 41.2364 -75.5856 113° Southeast 427 491 17,000 -1,050 Descending New York Center
Sat 10:51:41 AM 41.1900 -75.4442 114° Southeast 408 470 16,200 -1,950 Descending New York Center
Sat 10:52:41 AM 41.1508 -75.3231 113° Southeast 403 464 13,100 -2,800 Descending New York Center
Sat 10:53:41 AM 41.1075 -75.2017 115° Southeast 379 436 10,600 -2,500 Descending New York Center
Sat 10:54:41 AM 41.0703 -75.0864 113° Southeast 325 374 8,100 -2,200 Descending New York Center
Sat 10:55:41 AM 41.0617 -74.9814 96° East 295 339 6,200 -1,050 Descending New York Center
Sat 10:56:41 AM 41.0567 -74.8792 94° East 273 314 6,000 -850 Descending New York Center
Sat 10:57:41 AM 41.0539 -74.7856 92° East 273 314 4,500 -950 Descending New York Center
Sat 10:58:41 AM 41.0508 -74.6892 92° East 268 308 4,100 -450 Descending New York Center
Sat 10:59:41 AM 41.0478 -74.5925 92° East 263 303 3,600 -550 Descending New York Center
Sat 11:00:41 AM 41.0464 -74.5017 91° East 257 296 3,000 -250 Descending New York Center
Sat 11:01:41 AM 41.0389 -74.4078 96° East 257 296 3,100 50 Climbing New York Center
Sat 11:02:41 AM 41.0375 -74.3169 91° East 252 290 3,100 -150 Level New York Center
Sat 11:03:41 AM 41.0339 -74.2261 93° East 252 290 2,800 -465 Descending New York Center
Sat 11:04:50 AM 41.0333 -74.1333 90° East 225 259 2,100 -326 Descending New York TRACON
Sat 11:05:50 AM 40.9833 -74.0833 143° Southeast 200 230 2,100 -50 Level New York TRACON
Sat 11:06:49 AM 40.9500 -74.0500 143° Southeast 178 205 2,000 -474 Descending New York TRACON
Sat 11:07:44 AM 40.9167 -74.0500 180° South 137 158 1,200 -783 Descending New York TRACON
Sat 11:08:44 AM 40.8833 -74.0500 180° South 124 143 500 -700 Descending New York TRACON
Sat 11:10:00 AM 40.8500 -74.0500 180° South  Level FlightAware Approximate
Sat 11:17:00 AM 40.8501 -74.0608 180° South  Level Estimated

Login

Don't have an account? Register now (free) for customized features, flight alerts, and more!